sensor_id;sensor_type;location;lat;lon;timestamp;P1;durP1;ratioP1;P2;durP2;ratioP2
4786;SDS011;62338;48.832;9.422;2023-07-02T00:01:31;6.90;;;4.87;;
4786;SDS011;62338;48.832;9.422;2023-07-02T00:03:32;7.67;;;5.07;;
4786;SDS011;62338;48.832;9.422;2023-07-02T00:05:34;5.63;;;4.17;;
4786;SDS011;62338;48.832;9.422;2023-07-02T00:07:36;7.60;;;4.67;;
4786;SDS011;62338;48.832;9.422;2023-07-02T00:09:39;8.17;;;5.20;;
4786;SDS011;62338;48.832;9.422;2023-07-02T00:11:42;7.13;;;4.63;;
4786;SDS011;62338;48.832;9.422;2023-07-02T00:13:45;7.97;;;5.40;;
4786;SDS011;62338;48.832;9.422;2023-07-02T00:15:46;7.53;;;4.90;;
4786;SDS011;62338;48.832;9.422;2023-07-02T00:17:48;8.97;;;5.17;;
4786;SDS011;62338;48.832;9.422;2023-07-02T00:19:50;8.40;;;4.70;;
4786;SDS011;62338;48.832;9.422;2023-07-02T00:21:53;7.63;;;5.13;;
4786;SDS011;62338;48.832;9.422;2023-07-02T00:23:56;7.33;;;4.77;;
4786;SDS011;62338;48.832;9.422;2023-07-02T00:25:58;8.23;;;5.83;;
4786;SDS011;62338;48.832;9.422;2023-07-02T00:28:00;7.30;;;4.30;;
4786;SDS011;62338;48.832;9.422;2023-07-02T00:30:02;6.57;;;4.80;;
4786;SDS011;62338;48.832;9.422;2023-07-02T00:32:04;10.77;;;5.20;;
4786;SDS011;62338;48.832;9.422;2023-07-02T00:34:06;12.13;;;5.30;;
4786;SDS011;62338;48.832;9.422;2023-07-02T00:36:08;8.40;;;4.53;;
4786;SDS011;62338;48.832;9.422;2023-07-02T00:38:15;7.47;;;4.97;;
4786;SDS011;62338;48.832;9.422;2023-07-02T00:40:16;10.23;;;6.50;;
4786;SDS011;62338;48.832;9.422;2023-07-02T00:42:18;10.23;;;5.37;;
4786;SDS011;62338;48.832;9.422;2023-07-02T00:44:21;9.00;;;4.60;;
4786;SDS011;62338;48.832;9.422;2023-07-02T00:46:26;9.67;;;5.37;;
4786;SDS011;62338;48.832;9.422;2023-07-02T00:48:28;6.50;;;4.97;;
4786;SDS011;62338;48.832;9.422;2023-07-02T00:50:30;5.80;;;4.40;;
4786;SDS011;62338;48.832;9.422;2023-07-02T00:52:32;7.60;;;4.90;;
4786;SDS011;62338;48.832;9.422;2023-07-02T00:54:34;10.00;;;5.90;;
4786;SDS011;62338;48.832;9.422;2023-07-02T00:56:37;8.43;;;5.40;;
4786;SDS011;62338;48.832;9.422;2023-07-02T00:58:40;8.70;;;4.80;;
4786;SDS011;62338;48.832;9.422;2023-07-02T01:00:49;7.67;;;5.07;;
4786;SDS011;62338;48.832;9.422;2023-07-02T01:02:54;13.93;;;6.17;;
4786;SDS011;62338;48.832;9.422;2023-07-02T01:05:00;8.40;;;5.47;;
4786;SDS011;62338;48.832;9.422;2023-07-02T01:07:03;8.57;;;4.60;;
4786;SDS011;62338;48.832;9.422;2023-07-02T01:09:10;7.27;;;4.67;;
4786;SDS011;62338;48.832;9.422;2023-07-02T01:11:12;11.07;;;5.20;;
4786;SDS011;62338;48.832;9.422;2023-07-02T01:13:14;7.30;;;4.07;;
4786;SDS011;62338;48.832;9.422;2023-07-02T01:15:20;9.10;;;5.30;;
4786;SDS011;62338;48.832;9.422;2023-07-02T01:17:22;8.07;;;4.63;;
4786;SDS011;62338;48.832;9.422;2023-07-02T01:22:00;7.07;;;4.73;;
4786;SDS011;62338;48.832;9.422;2023-07-02T01:24:03;7.17;;;4.63;;
4786;SDS011;62338;48.832;9.422;2023-07-02T01:26:05;7.57;;;5.33;;
4786;SDS011;62338;48.832;9.422;2023-07-02T01:28:07;7.17;;;4.17;;
4786;SDS011;62338;48.832;9.422;2023-07-02T01:30:09;7.33;;;4.53;;
4786;SDS011;62338;48.832;9.422;2023-07-02T01:32:12;6.70;;;4.87;;
4786;SDS011;62338;48.832;9.422;2023-07-02T01:34:14;7.50;;;5.13;;
4786;SDS011;62338;48.832;9.422;2023-07-02T01:36:16;8.80;;;5.30;;
4786;SDS011;62338;48.832;9.422;2023-07-02T01:38:18;8.20;;;4.90;;
4786;SDS011;62338;48.832;9.422;2023-07-02T01:40:20;8.40;;;4.77;;
4786;SDS011;62338;48.832;9.422;2023-07-02T01:42:22;8.57;;;4.43;;
4786;SDS011;62338;48.832;9.422;2023-07-02T01:44:23;7.40;;;5.47;;
4786;SDS011;62338;48.832;9.422;2023-07-02T01:46:25;7.30;;;4.43;;
4786;SDS011;62338;48.832;9.422;2023-07-02T01:48:27;6.60;;;4.83;;
4786;SDS011;62338;48.832;9.422;2023-07-02T01:50:29;6.33;;;4.70;;
4786;SDS011;62338;48.832;9.422;2023-07-02T01:52:30;7.53;;;4.40;;
4786;SDS011;62338;48.832;9.422;2023-07-02T01:54:35;7.57;;;4.50;;
4786;SDS011;62338;48.832;9.422;2023-07-02T01:56:37;7.27;;;4.97;;
4786;SDS011;62338;48.832;9.422;2023-07-02T01:58:39;8.30;;;4.33;;
4786;SDS011;62338;48.832;9.422;2023-07-02T02:00:41;8.97;;;4.53;;
4786;SDS011;62338;48.832;9.422;2023-07-02T02:02:43;6.90;;;4.73;;
4786;SDS011;62338;48.832;9.422;2023-07-02T02:04:45;6.93;;;4.80;;
4786;SDS011;62338;48.832;9.422;2023-07-02T02:06:47;11.33;;;5.13;;
4786;SDS011;62338;48.832;9.422;2023-07-02T02:08:49;17.93;;;4.30;;
4786;SDS011;62338;48.832;9.422;2023-07-02T02:10:50;7.50;;;4.97;;
4786;SDS011;62338;48.832;9.422;2023-07-02T02:12:52;7.30;;;5.60;;
4786;SDS011;62338;48.832;9.422;2023-07-02T02:14:54;8.13;;;5.07;;
4786;SDS011;62338;48.832;9.422;2023-07-02T02:16:56;6.10;;;4.13;;
4786;SDS011;62338;48.832;9.422;2023-07-02T02:18:57;7.47;;;4.53;;
4786;SDS011;62338;48.832;9.422;2023-07-02T02:20:59;6.33;;;4.40;;
4786;SDS011;62338;48.832;9.422;2023-07-02T02:23:01;9.70;;;4.33;;
4786;SDS011;62338;48.832;9.422;2023-07-02T02:25:03;8.03;;;4.70;;
4786;SDS011;62338;48.832;9.422;2023-07-02T02:27:05;9.00;;;4.50;;
4786;SDS011;62338;48.832;9.422;2023-07-02T02:29:07;6.40;;;4.57;;
4786;SDS011;62338;48.832;9.422;2023-07-02T02:31:09;7.70;;;4.40;;
4786;SDS011;62338;48.832;9.422;2023-07-02T02:33:11;9.47;;;4.80;;
4786;SDS011;62338;48.832;9.422;2023-07-02T02:35:13;5.80;;;3.90;;
4786;SDS011;62338;48.832;9.422;2023-07-02T02:37:14;6.77;;;4.33;;
4786;SDS011;62338;48.832;9.422;2023-07-02T02:39:16;6.37;;;4.17;;
4786;SDS011;62338;48.832;9.422;2023-07-02T02:41:18;5.90;;;4.37;;
4786;SDS011;62338;48.832;9.422;2023-07-02T02:43:19;6.53;;;4.23;;
4786;SDS011;62338;48.832;9.422;2023-07-02T02:45:22;8.70;;;5.07;;
4786;SDS011;62338;48.832;9.422;2023-07-02T02:47:24;9.20;;;5.07;;
4786;SDS011;62338;48.832;9.422;2023-07-02T02:49:25;7.80;;;4.57;;
4786;SDS011;62338;48.832;9.422;2023-07-02T02:51:27;6.13;;;4.50;;
4786;SDS011;62338;48.832;9.422;2023-07-02T02:53:29;9.20;;;4.27;;
4786;SDS011;62338;48.832;9.422;2023-07-02T02:55:31;6.20;;;4.13;;
4786;SDS011;62338;48.832;9.422;2023-07-02T02:57:33;8.20;;;4.30;;
4786;SDS011;62338;48.832;9.422;2023-07-02T02:59:35;8.43;;;3.60;;
4786;SDS011;62338;48.832;9.422;2023-07-02T03:01:37;5.80;;;4.23;;
4786;SDS011;62338;48.832;9.422;2023-07-02T03:03:40;5.87;;;4.03;;
4786;SDS011;62338;48.832;9.422;2023-07-02T03:05:46;6.60;;;4.13;;
4786;SDS011;62338;48.832;9.422;2023-07-02T03:07:50;6.03;;;4.40;;
4786;SDS011;62338;48.832;9.422;2023-07-02T03:09:52;5.73;;;4.37;;
4786;SDS011;62338;48.832;9.422;2023-07-02T03:11:54;8.37;;;5.43;;
4786;SDS011;62338;48.832;9.422;2023-07-02T03:13:56;6.30;;;4.10;;
4786;SDS011;62338;48.832;9.422;2023-07-02T03:15:58;7.27;;;3.80;;
4786;SDS011;62338;48.832;9.422;2023-07-02T03:18:00;7.60;;;5.20;;
4786;SDS011;62338;48.832;9.422;2023-07-02T03:20:02;6.33;;;4.27;;
4786;SDS011;62338;48.832;9.422;2023-07-02T03:22:09;7.37;;;5.00;;
4786;SDS011;62338;48.832;9.422;2023-07-02T03:24:11;6.37;;;4.40;;
4786;SDS011;62338;48.832;9.422;2023-07-02T03:26:14;6.37;;;4.50;;
4786;SDS011;62338;48.832;9.422;2023-07-02T03:28:16;8.80;;;3.80;;
4786;SDS011;62338;48.832;9.422;2023-07-02T03:30:17;6.20;;;3.60;;
4786;SDS011;62338;48.832;9.422;2023-07-02T03:32:19;9.67;;;4.63;;
4786;SDS011;62338;48.832;9.422;2023-07-02T03:34:21;7.00;;;4.60;;
4786;SDS011;62338;48.832;9.422;2023-07-02T03:36:25;7.60;;;4.43;;
4786;SDS011;62338;48.832;9.422;2023-07-02T03:38:27;6.80;;;4.10;;
4786;SDS011;62338;48.832;9.422;2023-07-02T03:40:29;7.37;;;4.00;;
4786;SDS011;62338;48.832;9.422;2023-07-02T03:42:32;8.10;;;5.37;;
4786;SDS011;62338;48.832;9.422;2023-07-02T03:44:34;7.03;;;4.53;;
4786;SDS011;62338;48.832;9.422;2023-07-02T03:46:36;14.60;;;6.80;;
4786;SDS011;62338;48.832;9.422;2023-07-02T03:48:38;9.90;;;6.43;;
4786;SDS011;62338;48.832;9.422;2023-07-02T03:50:40;11.00;;;6.57;;
4786;SDS011;62338;48.832;9.422;2023-07-02T03:52:41;9.80;;;6.40;;
4786;SDS011;62338;48.832;9.422;2023-07-02T03:54:43;7.10;;;5.23;;
4786;SDS011;62338;48.832;9.422;2023-07-02T03:56:45;8.37;;;5.80;;
4786;SDS011;62338;48.832;9.422;2023-07-02T03:58:47;13.80;;;7.20;;
4786;SDS011;62338;48.832;9.422;2023-07-02T04:00:49;13.97;;;6.43;;
4786;SDS011;62338;48.832;9.422;2023-07-02T04:02:51;19.23;;;6.80;;
4786;SDS011;62338;48.832;9.422;2023-07-02T04:04:53;13.03;;;7.07;;
4786;SDS011;62338;48.832;9.422;2023-07-02T04:06:55;13.80;;;6.20;;
4786;SDS011;62338;48.832;9.422;2023-07-02T04:08:56;10.27;;;6.60;;
4786;SDS011;62338;48.832;9.422;2023-07-02T04:10:58;14.20;;;6.77;;
4786;SDS011;62338;48.832;9.422;2023-07-02T04:13:00;10.67;;;6.93;;
4786;SDS011;62338;48.832;9.422;2023-07-02T04:15:02;13.67;;;7.37;;
4786;SDS011;62338;48.832;9.422;2023-07-02T04:17:05;13.63;;;6.43;;
4786;SDS011;62338;48.832;9.422;2023-07-02T04:19:07;12.97;;;7.33;;
4786;SDS011;62338;48.832;9.422;2023-07-02T04:21:08;11.20;;;7.10;;
4786;SDS011;62338;48.832;9.422;2023-07-02T04:23:10;14.80;;;7.47;;
4786;SDS011;62338;48.832;9.422;2023-07-02T04:25:12;18.77;;;7.87;;
4786;SDS011;62338;48.832;9.422;2023-07-02T04:27:37;23.07;;;9.53;;
4786;SDS011;62338;48.832;9.422;2023-07-02T04:29:52;18.53;;;8.27;;
4786;SDS011;62338;48.832;9.422;2023-07-02T04:31:56;16.93;;;8.20;;
4786;SDS011;62338;48.832;9.422;2023-07-02T04:33:58;16.10;;;8.30;;
4786;SDS011;62338;48.832;9.422;2023-07-02T04:36:00;11.80;;;7.43;;
4786;SDS011;62338;48.832;9.422;2023-07-02T04:38:05;17.77;;;7.90;;
4786;SDS011;62338;48.832;9.422;2023-07-02T04:40:08;22.80;;;8.40;;
4786;SDS011;62338;48.832;9.422;2023-07-02T04:42:12;20.40;;;9.63;;
4786;SDS011;62338;48.832;9.422;2023-07-02T04:44:16;18.20;;;9.13;;
4786;SDS011;62338;48.832;9.422;2023-07-02T04:46:17;13.60;;;8.10;;
4786;SDS011;62338;48.832;9.422;2023-07-02T04:48:19;23.87;;;9.60;;
4786;SDS011;62338;48.832;9.422;2023-07-02T04:50:21;18.57;;;9.20;;
4786;SDS011;62338;48.832;9.422;2023-07-02T04:52:23;17.43;;;8.37;;
4786;SDS011;62338;48.832;9.422;2023-07-02T04:54:25;18.83;;;8.60;;
4786;SDS011;62338;48.832;9.422;2023-07-02T04:56:26;20.10;;;8.70;;
4786;SDS011;62338;48.832;9.422;2023-07-02T04:58:28;10.67;;;7.37;;
4786;SDS011;62338;48.832;9.422;2023-07-02T05:00:30;16.70;;;7.47;;
4786;SDS011;62338;48.832;9.422;2023-07-02T05:02:32;15.40;;;7.23;;
4786;SDS011;62338;48.832;9.422;2023-07-02T05:04:35;13.07;;;7.87;;
4786;SDS011;62338;48.832;9.422;2023-07-02T05:06:38;17.83;;;7.30;;
4786;SDS011;62338;48.832;9.422;2023-07-02T05:08:41;15.10;;;7.40;;
4786;SDS011;62338;48.832;9.422;2023-07-02T05:10:43;21.77;;;8.47;;
4786;SDS011;62338;48.832;9.422;2023-07-02T05:12:45;13.97;;;7.53;;
4786;SDS011;62338;48.832;9.422;2023-07-02T05:14:47;12.73;;;6.60;;
4786;SDS011;62338;48.832;9.422;2023-07-02T05:16:49;14.37;;;6.57;;
4786;SDS011;62338;48.832;9.422;2023-07-02T05:18:51;10.13;;;5.70;;
4786;SDS011;62338;48.832;9.422;2023-07-02T05:20:53;11.00;;;6.40;;
4786;SDS011;62338;48.832;9.422;2023-07-02T05:22:55;23.40;;;6.70;;
4786;SDS011;62338;48.832;9.422;2023-07-02T05:24:57;11.63;;;5.67;;
4786;SDS011;62338;48.832;9.422;2023-07-02T05:27:00;9.47;;;6.27;;
4786;SDS011;62338;48.832;9.422;2023-07-02T05:29:02;11.13;;;5.73;;
4786;SDS011;62338;48.832;9.422;2023-07-02T05:31:04;13.10;;;6.20;;
4786;SDS011;62338;48.832;9.422;2023-07-02T05:33:06;13.80;;;5.47;;
4786;SDS011;62338;48.832;9.422;2023-07-02T05:35:08;12.70;;;5.17;;
4786;SDS011;62338;48.832;9.422;2023-07-02T05:37:10;10.33;;;5.83;;
4786;SDS011;62338;48.832;9.422;2023-07-02T05:39:11;9.37;;;5.70;;
4786;SDS011;62338;48.832;9.422;2023-07-02T05:41:19;9.37;;;4.90;;
4786;SDS011;62338;48.832;9.422;2023-07-02T05:43:21;9.57;;;6.30;;
4786;SDS011;62338;48.832;9.422;2023-07-02T05:45:23;6.67;;;4.00;;
4786;SDS011;62338;48.832;9.422;2023-07-02T05:47:26;9.20;;;4.47;;
4786;SDS011;62338;48.832;9.422;2023-07-02T05:49:31;8.10;;;4.13;;
4786;SDS011;62338;48.832;9.422;2023-07-02T05:51:33;8.30;;;4.60;;
4786;SDS011;62338;48.832;9.422;2023-07-02T05:53:36;7.23;;;4.13;;
4786;SDS011;62338;48.832;9.422;2023-07-02T05:55:39;8.97;;;4.67;;
4786;SDS011;62338;48.832;9.422;2023-07-02T05:57:43;6.87;;;4.33;;
4786;SDS011;62338;48.832;9.422;2023-07-02T05:59:46;11.87;;;5.30;;
4786;SDS011;62338;48.832;9.422;2023-07-02T06:01:48;11.93;;;5.13;;
4786;SDS011;62338;48.832;9.422;2023-07-02T06:03:50;8.97;;;4.47;;
4786;SDS011;62338;48.832;9.422;2023-07-02T06:05:53;10.20;;;5.10;;
4786;SDS011;62338;48.832;9.422;2023-07-02T06:07:55;11.87;;;5.23;;
4786;SDS011;62338;48.832;9.422;2023-07-02T06:09:57;7.80;;;4.20;;
4786;SDS011;62338;48.832;9.422;2023-07-02T06:11:58;11.30;;;4.70;;
4786;SDS011;62338;48.832;9.422;2023-07-02T06:14:00;7.40;;;5.20;;
4786;SDS011;62338;48.832;9.422;2023-07-02T06:16:02;9.73;;;5.10;;
4786;SDS011;62338;48.832;9.422;2023-07-02T06:18:04;13.17;;;5.60;;
4786;SDS011;62338;48.832;9.422;2023-07-02T06:20:06;9.13;;;5.77;;
4786;SDS011;62338;48.832;9.422;2023-07-02T06:22:08;11.33;;;5.50;;
4786;SDS011;62338;48.832;9.422;2023-07-02T06:24:10;12.20;;;5.80;;
4786;SDS011;62338;48.832;9.422;2023-07-02T06:26:12;13.70;;;4.90;;
4786;SDS011;62338;48.832;9.422;2023-07-02T06:28:13;13.07;;;5.60;;
4786;SDS011;62338;48.832;9.422;2023-07-02T06:30:15;11.37;;;6.60;;
4786;SDS011;62338;48.832;9.422;2023-07-02T06:32:17;11.43;;;5.10;;
4786;SDS011;62338;48.832;9.422;2023-07-02T06:34:20;8.30;;;4.43;;
4786;SDS011;62338;48.832;9.422;2023-07-02T06:36:21;11.30;;;4.80;;
4786;SDS011;62338;48.832;9.422;2023-07-02T06:38:23;13.63;;;5.70;;
4786;SDS011;62338;48.832;9.422;2023-07-02T06:40:25;12.40;;;5.73;;
4786;SDS011;62338;48.832;9.422;2023-07-02T06:42:27;10.60;;;5.13;;
4786;SDS011;62338;48.832;9.422;2023-07-02T06:44:29;9.47;;;4.97;;
4786;SDS011;62338;48.832;9.422;2023-07-02T06:46:31;11.87;;;6.20;;
4786;SDS011;62338;48.832;9.422;2023-07-02T06:48:33;10.50;;;5.60;;
4786;SDS011;62338;48.832;9.422;2023-07-02T06:50:35;9.73;;;4.63;;
4786;SDS011;62338;48.832;9.422;2023-07-02T06:52:37;15.40;;;6.73;;
4786;SDS011;62338;48.832;9.422;2023-07-02T06:54:39;10.80;;;6.57;;
4786;SDS011;62338;48.832;9.422;2023-07-02T06:56:43;11.40;;;6.00;;
4786;SDS011;62338;48.832;9.422;2023-07-02T06:58:45;17.27;;;6.50;;
4786;SDS011;62338;48.832;9.422;2023-07-02T07:00:47;13.57;;;5.60;;
4786;SDS011;62338;48.832;9.422;2023-07-02T07:02:49;7.27;;;4.77;;
4786;SDS011;62338;48.832;9.422;2023-07-02T07:04:51;13.63;;;5.50;;
4786;SDS011;62338;48.832;9.422;2023-07-02T07:06:53;10.63;;;6.30;;
4786;SDS011;62338;48.832;9.422;2023-07-02T07:08:56;9.23;;;5.30;;
4786;SDS011;62338;48.832;9.422;2023-07-02T07:10:58;13.93;;;4.87;;
4786;SDS011;62338;48.832;9.422;2023-07-02T07:13:00;13.43;;;5.00;;
4786;SDS011;62338;48.832;9.422;2023-07-02T07:15:03;9.70;;;5.77;;
4786;SDS011;62338;48.832;9.422;2023-07-02T07:17:05;13.87;;;6.30;;
4786;SDS011;62338;48.832;9.422;2023-07-02T07:19:07;9.57;;;5.07;;
4786;SDS011;62338;48.832;9.422;2023-07-02T07:21:09;9.17;;;4.80;;
4786;SDS011;62338;48.832;9.422;2023-07-02T07:23:11;11.73;;;5.70;;
4786;SDS011;62338;48.832;9.422;2023-07-02T07:25:13;14.00;;;6.43;;
4786;SDS011;62338;48.832;9.422;2023-07-02T07:27:16;14.10;;;6.43;;
4786;SDS011;62338;48.832;9.422;2023-07-02T07:29:18;10.33;;;5.40;;
4786;SDS011;62338;48.832;9.422;2023-07-02T07:31:20;13.50;;;6.40;;
4786;SDS011;62338;48.832;9.422;2023-07-02T07:33:21;13.40;;;6.30;;
4786;SDS011;62338;48.832;9.422;2023-07-02T07:35:23;12.47;;;6.53;;
4786;SDS011;62338;48.832;9.422;2023-07-02T07:37:25;9.80;;;5.90;;
4786;SDS011;62338;48.832;9.422;2023-07-02T07:39:27;11.63;;;6.00;;
4786;SDS011;62338;48.832;9.422;2023-07-02T07:41:29;11.90;;;6.40;;
4786;SDS011;62338;48.832;9.422;2023-07-02T07:43:31;14.60;;;6.03;;
4786;SDS011;62338;48.832;9.422;2023-07-02T07:45:33;10.97;;;5.83;;
4786;SDS011;62338;48.832;9.422;2023-07-02T07:47:35;11.80;;;6.80;;
4786;SDS011;62338;48.832;9.422;2023-07-02T07:49:37;14.00;;;7.00;;
4786;SDS011;62338;48.832;9.422;2023-07-02T07:51:39;23.67;;;7.00;;
4786;SDS011;62338;48.832;9.422;2023-07-02T07:53:41;17.67;;;7.40;;
4786;SDS011;62338;48.832;9.422;2023-07-02T07:55:43;13.50;;;5.83;;
4786;SDS011;62338;48.832;9.422;2023-07-02T07:57:44;14.17;;;7.47;;
4786;SDS011;62338;48.832;9.422;2023-07-02T07:59:46;16.77;;;7.27;;
4786;SDS011;62338;48.832;9.422;2023-07-02T08:01:48;14.70;;;7.73;;
4786;SDS011;62338;48.832;9.422;2023-07-02T08:03:50;19.63;;;7.73;;
4786;SDS011;62338;48.832;9.422;2023-07-02T08:05:52;21.13;;;8.87;;
4786;SDS011;62338;48.832;9.422;2023-07-02T08:07:53;17.33;;;7.83;;
4786;SDS011;62338;48.832;9.422;2023-07-02T08:09:55;17.70;;;8.90;;
4786;SDS011;62338;48.832;9.422;2023-07-02T08:11:57;20.63;;;9.70;;
4786;SDS011;62338;48.832;9.422;2023-07-02T08:13:59;17.10;;;8.10;;
4786;SDS011;62338;48.832;9.422;2023-07-02T08:16:00;17.67;;;8.40;;
4786;SDS011;62338;48.832;9.422;2023-07-02T08:18:02;16.00;;;8.03;;
4786;SDS011;62338;48.832;9.422;2023-07-02T08:20:05;17.37;;;8.57;;
4786;SDS011;62338;48.832;9.422;2023-07-02T08:22:10;17.20;;;9.37;;
4786;SDS011;62338;48.832;9.422;2023-07-02T08:24:12;19.90;;;9.40;;
4786;SDS011;62338;48.832;9.422;2023-07-02T08:26:15;16.40;;;8.67;;
4786;SDS011;62338;48.832;9.422;2023-07-02T08:28:16;13.93;;;7.50;;
4786;SDS011;62338;48.832;9.422;2023-07-02T08:30:18;37.63;;;9.60;;
4786;SDS011;62338;48.832;9.422;2023-07-02T08:32:20;20.93;;;8.80;;
4786;SDS011;62338;48.832;9.422;2023-07-02T08:34:22;17.57;;;8.87;;
4786;SDS011;62338;48.832;9.422;2023-07-02T08:36:24;22.80;;;9.70;;
4786;SDS011;62338;48.832;9.422;2023-07-02T08:38:26;15.87;;;8.70;;
4786;SDS011;62338;48.832;9.422;2023-07-02T08:40:28;18.80;;;9.40;;
4786;SDS011;62338;48.832;9.422;2023-07-02T08:42:30;26.67;;;11.83;;
4786;SDS011;62338;48.832;9.422;2023-07-02T08:44:34;21.47;;;9.73;;
4786;SDS011;62338;48.832;9.422;2023-07-02T08:46:39;17.43;;;9.63;;
4786;SDS011;62338;48.832;9.422;2023-07-02T08:48:42;20.30;;;9.80;;
4786;SDS011;62338;48.832;9.422;2023-07-02T08:50:44;13.40;;;8.27;;
4786;SDS011;62338;48.832;9.422;2023-07-02T08:52:46;19.00;;;10.00;;
4786;SDS011;62338;48.832;9.422;2023-07-02T08:54:48;20.60;;;9.53;;
4786;SDS011;62338;48.832;9.422;2023-07-02T08:56:50;15.90;;;8.07;;
4786;SDS011;62338;48.832;9.422;2023-07-02T08:58:52;17.20;;;8.53;;
4786;SDS011;62338;48.832;9.422;2023-07-02T09:01:18;14.80;;;9.10;;
4786;SDS011;62338;48.832;9.422;2023-07-02T09:03:16;24.40;;;9.77;;
4786;SDS011;62338;48.832;9.422;2023-07-02T09:05:18;22.30;;;9.30;;
4786;SDS011;62338;48.832;9.422;2023-07-02T09:07:20;19.50;;;8.90;;
4786;SDS011;62338;48.832;9.422;2023-07-02T09:09:22;15.57;;;9.17;;
4786;SDS011;62338;48.832;9.422;2023-07-02T09:11:23;16.50;;;9.30;;
4786;SDS011;62338;48.832;9.422;2023-07-02T09:13:25;16.10;;;8.83;;
4786;SDS011;62338;48.832;9.422;2023-07-02T09:15:27;19.57;;;9.60;;
4786;SDS011;62338;48.832;9.422;2023-07-02T09:17:36;19.00;;;8.88;;
4786;SDS011;62338;48.832;9.422;2023-07-02T09:19:49;18.98;;;9.07;;
4786;SDS011;62338;48.832;9.422;2023-07-02T09:21:52;14.70;;;8.37;;
4786;SDS011;62338;48.832;9.422;2023-07-02T09:23:54;15.57;;;9.20;;
4786;SDS011;62338;48.832;9.422;2023-07-02T09:25:56;15.80;;;9.40;;
4786;SDS011;62338;48.832;9.422;2023-07-02T09:27:58;21.73;;;9.50;;
4786;SDS011;62338;48.832;9.422;2023-07-02T09:30:04;24.83;;;10.20;;
4786;SDS011;62338;48.832;9.422;2023-07-02T09:32:23;19.90;;;8.47;;
4786;SDS011;62338;48.832;9.422;2023-07-02T09:34:26;13.87;;;8.30;;
4786;SDS011;62338;48.832;9.422;2023-07-02T09:36:32;15.80;;;8.83;;
4786;SDS011;62338;48.832;9.422;2023-07-02T09:38:34;14.67;;;8.00;;
4786;SDS011;62338;48.832;9.422;2023-07-02T09:40:37;14.03;;;8.40;;
4786;SDS011;62338;48.832;9.422;2023-07-02T09:42:47;14.80;;;8.20;;
4786;SDS011;62338;48.832;9.422;2023-07-02T09:44:56;18.52;;;9.23;;
4786;SDS011;62338;48.832;9.422;2023-07-02T09:47:04;21.90;;;8.55;;
4786;SDS011;62338;48.832;9.422;2023-07-02T09:49:07;15.60;;;8.18;;
4786;SDS011;62338;48.832;9.422;2023-07-02T09:51:13;13.38;;;8.60;;
4786;SDS011;62338;48.832;9.422;2023-07-02T09:53:15;14.23;;;7.45;;
4786;SDS011;62338;48.832;9.422;2023-07-02T09:55:17;15.15;;;7.90;;
4786;SDS011;62338;48.832;9.422;2023-07-02T09:57:19;14.75;;;7.97;;
4786;SDS011;62338;48.832;9.422;2023-07-02T09:59:20;16.52;;;8.70;;
4786;SDS011;62338;48.832;9.422;2023-07-02T10:01:22;16.88;;;8.10;;
4786;SDS011;62338;48.832;9.422;2023-07-02T10:03:28;18.13;;;8.52;;
4786;SDS011;62338;48.832;9.422;2023-07-02T10:05:31;13.70;;;8.30;;
4786;SDS011;62338;48.832;9.422;2023-07-02T10:07:35;17.52;;;9.68;;
4786;SDS011;62338;48.832;9.422;2023-07-02T10:09:37;16.10;;;9.70;;
4786;SDS011;62338;48.832;9.422;2023-07-02T10:11:39;22.48;;;9.02;;
4786;SDS011;62338;48.832;9.422;2023-07-02T10:13:41;15.68;;;7.93;;
4786;SDS011;62338;48.832;9.422;2023-07-02T10:15:43;14.75;;;8.80;;
4786;SDS011;62338;48.832;9.422;2023-07-02T10:17:53;18.30;;;10.10;;
4786;SDS011;62338;48.832;9.422;2023-07-02T10:19:58;13.93;;;7.70;;
4786;SDS011;62338;48.832;9.422;2023-07-02T10:22:04;16.17;;;8.90;;
4786;SDS011;62338;48.832;9.422;2023-07-02T10:24:12;13.90;;;8.07;;
4786;SDS011;62338;48.832;9.422;2023-07-02T10:26:16;17.55;;;9.38;;
4786;SDS011;62338;48.832;9.422;2023-07-02T10:28:19;13.65;;;7.80;;
4786;SDS011;62338;48.832;9.422;2023-07-02T10:30:30;20.13;;;8.85;;
4786;SDS011;62338;48.832;9.422;2023-07-02T10:32:37;15.25;;;8.57;;
4786;SDS011;62338;48.832;9.422;2023-07-02T10:34:40;18.42;;;9.02;;
4786;SDS011;62338;48.832;9.422;2023-07-02T10:36:41;16.25;;;8.80;;
4786;SDS011;62338;48.832;9.422;2023-07-02T10:38:43;17.48;;;8.98;;
4786;SDS011;62338;48.832;9.422;2023-07-02T10:40:45;16.23;;;8.75;;
4786;SDS011;62338;48.832;9.422;2023-07-02T10:42:49;17.40;;;9.32;;
4786;SDS011;62338;48.832;9.422;2023-07-02T10:44:52;18.58;;;9.30;;
4786;SDS011;62338;48.832;9.422;2023-07-02T10:46:54;16.15;;;8.48;;
4786;SDS011;62338;48.832;9.422;2023-07-02T10:48:57;17.58;;;9.52;;
4786;SDS011;62338;48.832;9.422;2023-07-02T10:50:58;14.52;;;9.30;;
4786;SDS011;62338;48.832;9.422;2023-07-02T10:53:01;17.08;;;9.75;;
4786;SDS011;62338;48.832;9.422;2023-07-02T10:55:04;14.13;;;8.60;;
4786;SDS011;62338;48.832;9.422;2023-07-02T10:57:07;16.58;;;9.05;;
4786;SDS011;62338;48.832;9.422;2023-07-02T10:59:09;21.25;;;8.90;;
4786;SDS011;62338;48.832;9.422;2023-07-02T11:01:11;13.25;;;7.93;;
4786;SDS011;62338;48.832;9.422;2023-07-02T11:03:16;13.80;;;8.40;;
4786;SDS011;62338;48.832;9.422;2023-07-02T11:05:20;16.92;;;9.85;;
4786;SDS011;62338;48.832;9.422;2023-07-02T11:07:22;18.50;;;9.45;;
4786;SDS011;62338;48.832;9.422;2023-07-02T11:09:25;15.13;;;7.90;;
4786;SDS011;62338;48.832;9.422;2023-07-02T11:11:27;16.73;;;9.00;;
4786;SDS011;62338;48.832;9.422;2023-07-02T11:13:30;17.08;;;9.15;;
4786;SDS011;62338;48.832;9.422;2023-07-02T11:15:35;16.52;;;8.25;;
4786;SDS011;62338;48.832;9.422;2023-07-02T11:17:37;16.67;;;7.68;;
4786;SDS011;62338;48.832;9.422;2023-07-02T11:19:42;14.88;;;9.07;;
4786;SDS011;62338;48.832;9.422;2023-07-02T11:21:53;14.98;;;7.82;;
4786;SDS011;62338;48.832;9.422;2023-07-02T11:24:02;17.88;;;9.20;;
4786;SDS011;62338;48.832;9.422;2023-07-02T11:26:05;20.20;;;10.32;;
4786;SDS011;62338;48.832;9.422;2023-07-02T11:28:07;18.60;;;10.27;;
4786;SDS011;62338;48.832;9.422;2023-07-02T11:30:09;18.55;;;10.38;;
4786;SDS011;62338;48.832;9.422;2023-07-02T11:32:11;15.52;;;9.65;;
4786;SDS011;62338;48.832;9.422;2023-07-02T11:34:22;17.50;;;10.05;;
4786;SDS011;62338;48.832;9.422;2023-07-02T11:36:26;15.57;;;9.47;;
4786;SDS011;62338;48.832;9.422;2023-07-02T11:38:27;18.97;;;10.50;;
4786;SDS011;62338;48.832;9.422;2023-07-02T11:40:29;17.80;;;9.70;;
4786;SDS011;62338;48.832;9.422;2023-07-02T11:42:31;21.07;;;10.13;;
4786;SDS011;62338;48.832;9.422;2023-07-02T11:44:33;21.23;;;9.00;;
4786;SDS011;62338;48.832;9.422;2023-07-02T11:46:34;19.70;;;9.03;;
4786;SDS011;62338;48.832;9.422;2023-07-02T11:48:37;14.33;;;8.60;;
4786;SDS011;62338;48.832;9.422;2023-07-02T11:50:38;18.93;;;9.50;;
4786;SDS011;62338;48.832;9.422;2023-07-02T11:52:40;16.33;;;9.80;;
4786;SDS011;62338;48.832;9.422;2023-07-02T11:54:42;16.02;;;9.30;;
4786;SDS011;62338;48.832;9.422;2023-07-02T11:56:44;19.23;;;9.80;;
4786;SDS011;62338;48.832;9.422;2023-07-02T11:58:46;17.27;;;9.45;;
4786;SDS011;62338;48.832;9.422;2023-07-02T12:00:48;17.20;;;8.75;;
4786;SDS011;62338;48.832;9.422;2023-07-02T12:02:50;15.75;;;8.43;;
4786;SDS011;62338;48.832;9.422;2023-07-02T12:04:52;14.98;;;8.57;;
4786;SDS011;62338;48.832;9.422;2023-07-02T12:06:54;16.70;;;9.25;;
4786;SDS011;62338;48.832;9.422;2023-07-02T12:08:56;18.23;;;9.35;;
4786;SDS011;62338;48.832;9.422;2023-07-02T12:10:57;14.48;;;9.23;;
4786;SDS011;62338;48.832;9.422;2023-07-02T12:12:59;15.63;;;8.63;;
4786;SDS011;62338;48.832;9.422;2023-07-02T12:15:01;15.45;;;9.73;;
4786;SDS011;62338;48.832;9.422;2023-07-02T12:17:03;17.48;;;8.40;;
4786;SDS011;62338;48.832;9.422;2023-07-02T12:19:05;19.40;;;10.00;;
4786;SDS011;62338;48.832;9.422;2023-07-02T12:21:07;21.35;;;9.30;;
4786;SDS011;62338;48.832;9.422;2023-07-02T12:23:09;15.25;;;8.55;;
4786;SDS011;62338;48.832;9.422;2023-07-02T12:25:12;22.00;;;8.60;;
4786;SDS011;62338;48.832;9.422;2023-07-02T12:27:14;15.00;;;8.57;;